createdAt,value
2018-12-07T00:01:52.765Z,76.40
2018-12-07T00:04:22.052Z,75.64
2018-12-07T00:06:51.308Z,76.45
2018-12-07T00:09:20.532Z,75.39
2018-12-07T00:11:49.785Z,76.37
2018-12-07T00:14:19.040Z,76.38
2018-12-07T00:16:48.293Z,76.04
2018-12-07T00:19:17.513Z,76.17
2018-12-07T00:21:46.717Z,76.11
2018-12-07T00:24:16.145Z,76.15
2018-12-07T00:26:45.376Z,75.54
2018-12-07T00:29:15.361Z,75.70
2018-12-07T00:31:44.596Z,75.14
2018-12-07T00:34:14.653Z,75.42
2018-12-07T00:36:43.847Z,75.26
2018-12-07T00:39:13.699Z,75.85
2018-12-07T00:41:42.869Z,74.74
2018-12-07T00:44:12.298Z,74.96
2018-12-07T00:46:41.520Z,74.49
2018-12-07T00:49:10.756Z,74.15
2018-12-07T00:51:40.043Z,74.38
2018-12-07T00:54:09.288Z,74.44
2018-12-07T00:56:38.506Z,74.71
2018-12-07T00:59:07.822Z,74.76
2018-12-07T01:01:37.105Z,74.93
2018-12-07T01:04:06.329Z,75.37
2018-12-07T01:06:35.527Z,75.54
2018-12-07T01:09:05.137Z,75.09
2018-12-07T01:11:34.344Z,75.24
2018-12-07T01:14:03.697Z,75.04
2018-12-07T01:16:32.947Z,74.90
2018-12-07T01:19:02.133Z,75.56
2018-12-07T01:21:31.397Z,74.89
2018-12-07T01:24:00.725Z,74.87
2018-12-07T01:26:29.956Z,74.92
2018-12-07T01:28:59.131Z,75.11
2018-12-07T01:31:28.409Z,75.04
2018-12-07T01:33:57.608Z,74.57
2018-12-07T01:36:26.847Z,74.96
2018-12-07T01:38:56.043Z,74.83
2018-12-07T01:41:25.267Z,75.20
2018-12-07T01:43:54.553Z,74.62
2018-12-07T01:46:23.764Z,74.79
2018-12-07T01:48:52.978Z,75.10
2018-12-07T01:51:22.237Z,74.40
2018-12-07T01:53:51.515Z,74.75
2018-12-07T01:56:20.767Z,74.93
2018-12-07T01:58:49.929Z,75.16
2018-12-07T02:01:19.232Z,74.06
2018-12-07T02:03:48.522Z,73.91
2018-12-07T02:06:17.797Z,73.89
2018-12-07T02:08:47.004Z,74.41
2018-12-07T02:11:16.941Z,73.80
2018-12-07T02:13:46.250Z,74.43
2018-12-07T02:16:15.995Z,73.74
2018-12-07T02:18:45.236Z,74.19
2018-12-07T02:21:14.956Z,73.86
2018-12-07T02:23:44.407Z,74.13
2018-12-07T02:26:14.471Z,74.67
2018-12-07T02:28:43.697Z,74.13
2018-12-07T02:31:13.627Z,73.95
2018-12-07T02:33:42.873Z,74.82
2018-12-07T02:36:12.279Z,74.72
2018-12-07T02:38:41.473Z,74.86
2018-12-07T02:41:10.707Z,74.65
2018-12-07T02:43:40.104Z,75.00
2018-12-07T02:46:09.301Z,75.33
2018-12-07T02:48:38.528Z,74.45
2018-12-07T02:51:08.250Z,74.39
2018-12-07T02:53:37.534Z,74.56
2018-12-07T02:56:06.805Z,74.20
2018-12-07T02:58:36.085Z,74.00
2018-12-07T03:01:05.637Z,74.39
2018-12-07T03:03:35.146Z,74.37
2018-12-07T03:06:04.355Z,74.28
2018-12-07T03:08:33.605Z,73.62
2018-12-07T03:11:03.574Z,73.84
2018-12-07T03:13:32.968Z,73.07
2018-12-07T03:16:02.500Z,73.42
2018-12-07T03:18:32.493Z,73.18
2018-12-07T03:21:01.728Z,73.76
2018-12-07T03:23:31.062Z,73.76
2018-12-07T03:26:00.249Z,74.21
2018-12-07T03:28:29.453Z,73.12
2018-12-07T03:30:58.713Z,73.70
2018-12-07T03:33:27.954Z,73.23
2018-12-07T03:35:57.161Z,73.78
2018-12-07T03:38:26.450Z,73.24
2018-12-07T03:40:55.726Z,73.45
2018-12-07T03:43:24.926Z,73.12
2018-12-07T03:45:54.116Z,73.00
2018-12-07T03:48:23.347Z,73.54
2018-12-07T03:50:52.638Z,73.00
2018-12-07T03:53:21.908Z,72.66
2018-12-07T03:55:51.229Z,74.04
2018-12-07T03:58:20.536Z,73.18
2018-12-07T04:00:50.048Z,73.33
2018-12-07T04:03:19.296Z,73.62
2018-12-07T04:05:49.707Z,73.17
2018-12-07T04:08:18.971Z,73.30
2018-12-07T04:10:49.500Z,73.35
2018-12-07T04:13:19.377Z,73.23
2018-12-07T04:15:48.627Z,73.62
2018-12-07T04:18:17.805Z,73.78
2018-12-07T04:20:47.222Z,73.33
2018-12-07T04:23:16.758Z,72.78
2018-12-07T04:25:45.975Z,73.82
2018-12-07T04:28:15.781Z,73.21
2018-12-07T04:30:45.404Z,73.41
2018-12-07T04:33:14.954Z,74.22
2018-12-07T04:35:44.160Z,74.18
2018-12-07T04:38:13.955Z,73.79
2018-12-07T04:40:43.169Z,74.08
2018-12-07T04:43:12.780Z,74.90
2018-12-07T04:45:41.942Z,74.72
2018-12-07T04:48:11.179Z,73.77
2018-12-07T04:50:40.442Z,74.19
2018-12-07T04:53:09.721Z,73.90
2018-12-07T04:55:38.955Z,74.48
2018-12-07T04:58:08.269Z,74.78
2018-12-07T05:00:37.586Z,75.20
2018-12-07T05:03:06.873Z,75.09
2018-12-07T05:05:36.227Z,75.60
2018-12-07T05:08:05.430Z,76.15
2018-12-07T05:10:34.661Z,76.72
2018-12-07T05:13:03.894Z,76.77
2018-12-07T05:15:33.211Z,76.95
2018-12-07T05:18:02.424Z,77.42
2018-12-07T05:20:31.628Z,77.55
2018-12-07T05:23:00.901Z,76.98
2018-12-07T05:25:30.106Z,77.63
2018-12-07T05:27:59.374Z,77.63
2018-12-07T05:30:29.254Z,77.30
2018-12-07T05:32:58.495Z,77.17
2018-12-07T05:35:27.749Z,76.85
2018-12-07T05:37:57.001Z,76.72
2018-12-07T05:40:26.284Z,76.69
2018-12-07T05:42:56.028Z,76.10
2018-12-07T05:45:25.220Z,76.49
2018-12-07T05:47:54.531Z,75.62
2018-12-07T05:50:23.953Z,76.01
2018-12-07T05:52:53.701Z,76.21
2018-12-07T05:55:23.230Z,75.64
2018-12-07T05:57:52.564Z,76.01
2018-12-07T06:00:22.105Z,75.65
2018-12-07T06:02:52.715Z,76.78
2018-12-07T06:05:21.930Z,77.07
2018-12-07T06:07:51.169Z,76.95
2018-12-07T06:10:20.425Z,76.52
2018-12-07T06:12:49.672Z,75.87
2018-12-07T06:15:19.331Z,75.96
2018-12-07T06:17:48.598Z,75.97
2018-12-07T06:20:18.190Z,76.80
2018-12-07T06:22:47.369Z,76.22
2018-12-07T06:25:18.610Z,76.12
2018-12-07T06:27:47.865Z,76.02
2018-12-07T06:30:17.626Z,76.27
2018-12-07T06:32:46.839Z,76.08
2018-12-07T06:35:17.074Z,75.89
2018-12-07T06:37:46.329Z,76.24
2018-12-07T06:40:17.263Z,75.74
2018-12-07T06:42:46.526Z,75.54
2018-12-07T06:45:15.793Z,76.07
2018-12-07T06:47:45.040Z,76.05
2018-12-07T06:50:14.399Z,76.64
2018-12-07T06:52:43.629Z,75.96
2018-12-07T06:55:14.520Z,75.74
2018-12-07T06:57:43.712Z,76.27
2018-12-07T07:00:13.757Z,75.36
2018-12-07T07:02:43.030Z,75.42
2018-12-07T07:05:13.478Z,74.42
2018-12-07T07:07:42.761Z,73.83
2018-12-07T07:10:12.836Z,74.62
2018-12-07T07:12:42.080Z,74.04
2018-12-07T07:15:12.837Z,74.59
2018-12-07T07:17:42.054Z,74.27
2018-12-07T07:20:11.969Z,74.53
2018-12-07T07:22:41.228Z,74.57
2018-12-07T07:25:13.180Z,74.14
2018-12-07T07:27:42.506Z,74.75
2018-12-07T07:30:12.573Z,74.55
2018-12-07T07:32:41.757Z,74.71
2018-12-07T07:35:11.625Z,74.53
2018-12-07T07:37:41.793Z,74.80
2018-12-07T07:40:12.442Z,75.59
2018-12-07T07:42:41.650Z,76.07
2018-12-07T07:45:12.774Z,75.61
2018-12-07T07:47:41.995Z,75.01
2018-12-07T07:50:12.051Z,75.56
2018-12-07T07:52:41.259Z,75.41
2018-12-07T07:55:11.837Z,75.63
2018-12-07T07:57:41.129Z,75.80
2018-12-07T08:00:11.287Z,75.97
2018-12-07T08:02:40.576Z,75.25
2018-12-07T08:05:10.406Z,75.16
2018-12-07T08:07:39.599Z,75.87
2018-12-07T08:10:09.652Z,75.65
2018-12-07T08:12:38.889Z,75.25
2018-12-07T08:15:08.551Z,75.71
2018-12-07T08:17:38.293Z,75.97
2018-12-07T08:20:07.627Z,74.55
2018-12-07T08:22:37.030Z,75.00
2018-12-07T08:25:06.472Z,73.11
2018-12-07T08:27:35.677Z,71.88
2018-12-07T08:30:06.549Z,72.37
2018-12-07T08:32:35.761Z,71.87
2018-12-07T08:35:06.293Z,71.49
2018-12-07T08:37:35.813Z,72.53
2018-12-07T08:40:06.578Z,72.29
2018-12-07T08:42:36.446Z,72.41
2018-12-07T08:45:07.215Z,72.73
2018-12-07T08:47:36.470Z,72.65
2018-12-07T08:50:06.893Z,72.55
2018-12-07T08:52:36.127Z,72.29
2018-12-07T08:55:05.484Z,73.18
2018-12-07T08:57:34.666Z,72.51
2018-12-07T09:00:03.946Z,72.63
2018-12-07T09:02:33.178Z,71.52
2018-12-07T09:05:02.412Z,71.05
2018-12-07T09:07:32.783Z,70.27
2018-12-07T09:10:01.989Z,69.76
2018-12-07T09:12:31.278Z,70.65
2018-12-07T09:15:00.475Z,70.49
2018-12-07T09:17:29.748Z,70.40
2018-12-07T09:19:58.912Z,69.99
2018-12-07T09:22:28.136Z,68.90
2018-12-07T09:24:57.404Z,69.69
2018-12-07T09:27:26.701Z,68.69
2018-12-07T09:29:55.901Z,68.53
2018-12-07T09:32:25.147Z,69.50
2018-12-07T09:34:54.353Z,69.04
2018-12-07T09:37:23.596Z,68.00
2018-12-07T09:39:52.814Z,67.99
2018-12-07T09:42:22.078Z,69.13
2018-12-07T09:44:51.277Z,68.74
2018-12-07T09:47:20.493Z,69.55
2018-12-07T09:49:49.802Z,68.80
2018-12-07T09:52:19.051Z,68.77
2018-12-07T09:54:48.285Z,69.65
2018-12-07T09:57:17.484Z,70.95
2018-12-07T09:59:46.697Z,71.80
2018-12-07T10:02:15.997Z,72.03
2018-12-07T10:04:45.244Z,71.37
2018-12-07T10:07:14.446Z,72.10
2018-12-07T10:09:43.663Z,72.44
2018-12-07T10:12:12.928Z,71.85
2018-12-07T10:14:42.159Z,71.58
2018-12-07T10:17:11.402Z,71.45
2018-12-07T10:19:40.673Z,71.56
2018-12-07T10:22:10.300Z,70.88
2018-12-07T10:24:39.476Z,70.78
2018-12-07T10:27:09.565Z,70.21
2018-12-07T10:29:38.921Z,70.78
2018-12-07T10:32:08.400Z,69.95
2018-12-07T10:34:37.561Z,70.06
2018-12-07T10:37:06.755Z,69.62
2018-12-07T10:39:35.956Z,69.91
2018-12-07T10:42:05.199Z,69.74
2018-12-07T10:44:34.438Z,69.26
2018-12-07T10:47:04.064Z,69.21
2018-12-07T10:49:33.378Z,68.73
2018-12-07T10:52:02.537Z,68.38
2018-12-07T10:54:31.839Z,68.92
2018-12-07T10:57:01.046Z,68.45
2018-12-07T10:59:30.359Z,69.01
2018-12-07T11:02:06.678Z,69.31
2018-12-07T11:04:42.653Z,68.32
2018-12-07T11:07:18.947Z,69.02
2018-12-07T11:09:54.358Z,68.10
2018-12-07T11:12:29.625Z,68.00
2018-12-07T11:15:04.043Z,67.78
2018-12-07T11:17:38.604Z,68.63
2018-12-07T11:20:13.013Z,67.69
2018-12-07T11:22:47.387Z,67.89
2018-12-07T11:25:21.758Z,68.53
2018-12-07T11:27:56.177Z,68.11
2018-12-07T11:30:28.589Z,68.79
2018-12-07T11:33:03.146Z,67.90
2018-12-07T11:35:34.463Z,68.62
2018-12-07T11:38:03.655Z,68.02
2018-12-07T11:40:32.913Z,67.92
2018-12-07T11:43:02.142Z,67.85
2018-12-07T11:45:31.447Z,68.08
2018-12-07T11:48:00.649Z,68.09
2018-12-07T11:50:30.005Z,68.67
2018-12-07T11:52:59.264Z,68.26
2018-12-07T11:55:28.583Z,67.86
2018-12-07T11:57:57.850Z,67.97
2018-12-07T12:00:27.425Z,66.98
2018-12-07T12:02:56.727Z,67.44
2018-12-07T12:05:26.000Z,67.86
2018-12-07T12:07:55.269Z,67.82
2018-12-07T12:10:24.573Z,68.04
2018-12-07T12:12:54.692Z,68.29
2018-12-07T12:15:23.914Z,68.29
2018-12-07T12:17:53.081Z,67.55
2018-12-07T12:20:22.334Z,67.39
2018-12-07T12:22:52.092Z,67.28
2018-12-07T12:25:21.351Z,68.03
2018-12-07T12:27:50.628Z,67.60
2018-12-07T12:30:19.869Z,68.01
2018-12-07T12:32:49.110Z,68.18
2018-12-07T12:35:18.343Z,68.17
2018-12-07T12:37:48.248Z,69.22
2018-12-07T12:40:17.475Z,69.75
2018-12-07T12:42:46.682Z,70.82
2018-12-07T12:45:15.902Z,71.04
2018-12-07T12:47:45.134Z,71.75
2018-12-07T12:50:19.398Z,73.00
2018-12-07T12:52:48.646Z,72.83
2018-12-07T12:55:17.904Z,72.40
2018-12-07T12:57:47.095Z,72.03
2018-12-07T13:00:16.408Z,72.11
2018-12-07T13:02:46.431Z,71.07
2018-12-07T13:05:17.994Z,71.48
2018-12-07T13:07:47.217Z,71.02
2018-12-07T13:10:16.397Z,72.04
2018-12-07T13:12:45.655Z,72.39
2018-12-07T13:15:14.862Z,72.06
2018-12-07T13:17:44.228Z,71.71
2018-12-07T13:20:14.306Z,71.86
2018-12-07T13:22:43.620Z,72.03
2018-12-07T13:25:13.258Z,72.19
2018-12-07T13:27:42.464Z,72.55
2018-12-07T13:30:12.440Z,71.96
2018-12-07T13:32:41.698Z,72.17
2018-12-07T13:35:11.500Z,73.25
2018-12-07T13:37:40.811Z,72.29
2018-12-07T13:40:12.490Z,72.29
2018-12-07T13:42:41.585Z,72.81
2018-12-07T13:45:11.640Z,72.94
2018-12-07T13:47:41.010Z,72.70
2018-12-07T13:50:15.613Z,71.78
2018-12-07T13:52:44.983Z,71.36
2018-12-07T13:55:14.402Z,71.16
2018-12-07T13:57:43.589Z,71.04
2018-12-07T14:00:13.114Z,71.75
2018-12-07T14:02:42.473Z,71.60
2018-12-07T14:05:12.149Z,71.16
2018-12-07T14:07:41.434Z,71.35
2018-12-07T14:10:11.543Z,70.66
2018-12-07T14:12:40.872Z,70.84
2018-12-07T14:15:10.430Z,70.05
2018-12-07T14:17:39.960Z,69.73
2018-12-07T14:20:10.439Z,70.30
2018-12-07T14:22:39.673Z,69.87
2018-12-07T14:25:09.471Z,70.34
2018-12-07T14:27:38.880Z,69.92
2018-12-07T14:30:11.103Z,70.06
2018-12-07T14:32:40.443Z,69.36
2018-12-07T14:35:10.331Z,69.13
2018-12-07T14:37:39.617Z,69.20
2018-12-07T14:40:09.154Z,69.02
2018-12-07T14:42:38.448Z,68.93
2018-12-07T14:45:09.604Z,69.36
2018-12-07T14:47:38.785Z,68.96
2018-12-07T14:50:08.386Z,69.34
2018-12-07T14:52:38.180Z,69.66
2018-12-07T15:00:35.677Z,69.05
2018-12-07T15:03:04.920Z,69.39
2018-12-07T15:05:34.396Z,68.87
2018-12-07T15:08:03.596Z,68.64
2018-12-07T15:10:32.765Z,68.49
2018-12-07T15:13:01.956Z,68.79
2018-12-07T15:15:31.396Z,68.77
2018-12-07T15:18:00.513Z,69.46
2018-12-07T15:20:30.160Z,69.95
2018-12-07T15:22:59.348Z,70.66
2018-12-07T15:25:28.277Z,70.84
2018-12-07T15:27:57.661Z,72.07
2018-12-07T15:30:26.881Z,73.14
2018-12-07T15:32:56.578Z,73.92
2018-12-07T15:35:26.006Z,74.44
2018-12-07T15:37:54.956Z,73.41
2018-12-07T15:40:24.244Z,73.30
2018-12-07T15:42:53.581Z,73.79
2018-12-07T15:45:23.002Z,73.02
2018-12-07T15:47:52.103Z,72.30
2018-12-07T15:50:25.077Z,72.54
2018-12-07T15:52:50.683Z,71.68
2018-12-07T15:55:20.272Z,70.86
2018-12-07T15:57:49.460Z,71.29
2018-12-07T16:00:18.773Z,70.41
2018-12-07T16:02:48.061Z,69.96
2018-12-07T16:05:17.475Z,71.29
2018-12-07T16:07:46.720Z,71.54
2018-12-07T16:10:16.578Z,70.70
2018-12-07T16:12:46.074Z,71.30
2018-12-07T16:15:16.138Z,71.34
2018-12-07T16:17:45.256Z,72.12
2018-12-07T16:20:17.624Z,71.52
2018-12-07T16:22:48.024Z,71.43
2018-12-07T16:25:17.910Z,71.59
2018-12-07T16:27:47.198Z,70.27
2018-12-07T16:30:17.263Z,69.92
2018-12-07T16:32:46.650Z,69.03
2018-12-07T16:35:17.312Z,69.43
2018-12-07T16:37:46.668Z,69.24
2018-12-07T16:40:16.655Z,67.12
2018-12-07T16:42:45.902Z,67.88
2018-12-07T16:45:16.066Z,67.15
2018-12-07T16:47:45.405Z,66.91
2018-12-07T16:50:15.575Z,66.15
2018-12-07T16:52:45.270Z,66.65
2018-12-07T16:55:15.428Z,67.30
2018-12-07T16:57:44.855Z,68.03
2018-12-07T17:00:14.592Z,67.67
2018-12-07T17:02:43.974Z,67.91
2018-12-07T17:05:15.096Z,69.29
2018-12-07T17:07:44.522Z,69.53
2018-12-07T17:10:14.276Z,69.40
2018-12-07T17:12:43.655Z,69.84
2018-12-07T17:15:13.710Z,69.58
2018-12-07T17:17:43.370Z,69.80
2018-12-07T17:20:12.813Z,70.43
2018-12-07T17:22:44.141Z,70.06
2018-12-07T17:25:14.157Z,70.41
2018-12-07T17:27:43.227Z,71.76
2018-12-07T17:30:12.581Z,71.98
2018-12-07T17:32:41.810Z,71.62
2018-12-07T17:35:11.079Z,71.57
2018-12-07T17:37:40.294Z,72.37
2018-12-07T17:40:09.554Z,72.77
2018-12-07T17:42:38.974Z,72.08
2018-12-07T17:45:08.271Z,72.02
2018-12-07T17:47:37.517Z,72.85
2018-12-07T17:50:07.424Z,73.65
2018-12-07T17:52:36.562Z,72.63
2018-12-07T17:55:06.035Z,72.85
2018-12-07T17:57:35.236Z,73.26
2018-12-07T18:00:04.783Z,73.41
2018-12-07T18:02:33.997Z,73.31
2018-12-07T18:05:03.453Z,72.28
2018-12-07T18:07:32.577Z,73.22
2018-12-07T18:10:01.820Z,72.65
2018-12-07T18:12:31.101Z,73.33
2018-12-07T18:15:00.447Z,73.03
2018-12-07T18:17:29.582Z,73.06
2018-12-07T18:19:58.939Z,73.10
2018-12-07T18:22:28.485Z,73.62
2018-12-07T18:24:57.570Z,74.36
2018-12-07T18:27:26.779Z,74.97
2018-12-07T18:29:56.404Z,74.71
2018-12-07T18:32:25.751Z,75.31
2018-12-07T18:34:55.154Z,75.04
2018-12-07T18:37:24.268Z,75.17
2018-12-07T18:39:53.798Z,74.50
2018-12-07T18:42:22.933Z,74.95
2018-12-07T18:44:52.150Z,75.76
2018-12-07T18:47:21.345Z,75.33
2018-12-07T18:49:50.829Z,75.10
2018-12-07T18:52:19.909Z,75.41
2018-12-07T18:54:49.152Z,75.39
2018-12-07T18:57:18.824Z,75.05
2018-12-07T18:59:49.004Z,74.92
2018-12-07T19:02:18.304Z,75.66
2018-12-07T19:04:47.479Z,75.78
2018-12-07T19:07:16.692Z,75.98
2018-12-07T19:09:46.069Z,75.31
2018-12-07T19:12:15.887Z,75.10
2018-12-07T19:14:45.041Z,75.58
2018-12-07T19:17:15.168Z,75.46
2018-12-07T19:19:44.179Z,75.76
2018-12-07T19:22:13.650Z,75.30
2018-12-07T19:24:43.045Z,75.49
2018-12-07T19:27:12.079Z,74.27
2018-12-07T19:29:41.404Z,74.84
2018-12-07T19:32:10.502Z,74.80
2018-12-07T19:34:39.767Z,74.80
2018-12-07T19:37:09.200Z,75.31
2018-12-07T19:39:38.407Z,74.99
2018-12-07T19:42:07.611Z,73.82
2018-12-07T19:44:36.774Z,73.51
2018-12-07T19:47:06.650Z,73.18
2018-12-07T19:49:35.769Z,73.67
2018-12-07T19:52:05.255Z,73.54
2018-12-07T19:54:34.355Z,72.95
2018-12-07T19:57:03.819Z,72.24
2018-12-07T19:59:32.833Z,72.08
2018-12-07T20:02:02.220Z,71.72
2018-12-07T20:04:31.567Z,70.64
2018-12-07T20:07:01.349Z,70.36
2018-12-07T20:09:30.650Z,70.20
2018-12-07T20:12:00.228Z,70.02
2018-12-07T20:14:29.229Z,68.79
2018-12-07T20:16:58.587Z,68.23
2018-12-07T20:19:27.886Z,68.66
2018-12-07T20:21:57.182Z,67.40
2018-12-07T20:24:26.652Z,65.77
2018-12-07T20:26:55.580Z,64.76
2018-12-07T20:29:25.170Z,64.20
2018-12-07T20:31:54.367Z,64.73
2018-12-07T20:34:23.511Z,64.27
2018-12-07T20:36:52.732Z,64.54
2018-12-07T20:39:22.155Z,64.50
2018-12-07T20:41:51.438Z,64.69
2018-12-07T20:44:20.779Z,65.28
2018-12-07T20:46:50.120Z,64.71
2018-12-07T20:49:19.346Z,64.49
2018-12-07T20:51:48.572Z,64.39
2018-12-07T20:54:17.803Z,64.60
2018-12-07T20:56:47.109Z,64.55
2018-12-07T20:59:16.473Z,63.70
2018-12-07T21:01:51.619Z,63.29
2018-12-07T21:04:28.949Z,63.24
2018-12-07T21:09:19.072Z,63.13
2018-12-07T21:11:53.674Z,63.66
2018-12-07T21:14:34.212Z,63.64
2018-12-07T21:17:18.260Z,64.32
2018-12-07T21:19:55.240Z,63.92
2018-12-07T21:22:24.484Z,63.66
2018-12-07T21:24:53.412Z,63.59
2018-12-07T21:27:22.700Z,63.08
2018-12-07T21:30:06.727Z,63.40
2018-12-07T21:32:35.811Z,62.40
2018-12-07T21:35:09.796Z,62.03
2018-12-07T21:37:39.123Z,62.80
2018-12-07T21:40:14.251Z,63.57
2018-12-07T21:42:43.933Z,62.52
2018-12-07T21:45:13.903Z,62.26
2018-12-07T21:48:03.259Z,61.75
2018-12-07T21:50:33.422Z,61.91
2018-12-07T21:53:02.407Z,61.77
2018-12-07T21:55:31.768Z,61.68
2018-12-07T21:58:01.847Z,60.75
2018-12-07T22:00:31.274Z,60.80
2018-12-07T22:03:02.084Z,60.53
2018-12-07T22:05:30.083Z,60.07
2018-12-07T22:07:59.146Z,60.89
2018-12-07T22:10:28.427Z,60.42
2018-12-07T22:12:57.717Z,60.69
2018-12-07T22:15:27.526Z,61.21
2018-12-07T22:17:56.681Z,60.41
2018-12-07T22:20:26.205Z,61.16
2018-12-07T22:22:55.620Z,61.02
2018-12-07T22:25:24.909Z,61.47
2018-12-07T22:27:54.046Z,61.96
2018-12-07T22:30:23.189Z,61.97
2018-12-07T22:32:52.421Z,62.41
2018-12-07T22:35:21.717Z,62.40
2018-12-07T22:37:51.088Z,62.72
2018-12-07T22:40:20.883Z,63.33
2018-12-07T22:42:50.439Z,62.91
2018-12-07T22:45:19.705Z,63.55
2018-12-07T22:47:48.643Z,63.82
2018-12-07T22:50:19.413Z,64.51
2018-12-07T22:52:48.659Z,64.04
2018-12-07T22:55:18.609Z,65.24
2018-12-07T22:57:47.908Z,64.77
2018-12-07T23:00:22.504Z,65.40
2018-12-07T23:02:51.750Z,64.83
2018-12-07T23:05:20.946Z,65.53
2018-12-07T23:07:50.225Z,66.11
2018-12-07T23:10:19.802Z,66.33
2018-12-07T23:12:51.917Z,66.14
2018-12-07T23:15:21.308Z,66.23
2018-12-07T23:17:50.566Z,65.44
2018-12-07T23:20:20.430Z,65.49
2018-12-07T23:22:49.710Z,65.06
2018-12-07T23:25:18.930Z,64.10
2018-12-07T23:27:48.170Z,65.04
2018-12-07T23:30:18.814Z,64.31
2018-12-07T23:32:48.055Z,63.90
2018-12-07T23:35:18.223Z,64.50
2018-12-07T23:37:47.478Z,64.55
2018-12-07T23:40:17.876Z,64.36
2018-12-07T23:42:47.992Z,64.17
2018-12-07T23:45:18.007Z,64.61
2018-12-07T23:47:47.268Z,64.28
2018-12-07T23:50:17.710Z,64.02
2018-12-07T23:52:46.881Z,63.49
2018-12-07T23:55:17.355Z,63.55
2018-12-07T23:57:46.557Z,63.91
